Time;durP1;ratioP1;P1;durP2;ratioP2;P2;SDS_P1;SDS_P2;PMS_P1;PMS_P2;Temp;Humidity;BMP_temperature;BMP_pressure;BME280_temperature;BME280_humidity;BME280_pressure;Samples;Min_cycle;Max_cycle;Signal;HPM_P1;HPM_P2
2023/04/19 00:01:43;;;;;;;12.20;11.60;;;;;;;;;;5052368;28;20068;-65
2023/04/19 00:04:09;;;;;;;12.68;12.07;;;;;;;;;;5052551;28;20032;-64
2023/04/19 00:06:35;;;;;;;12.32;11.73;;;;;;;;;;5052280;28;20025;-65
2023/04/19 00:09:00;;;;;;;12.68;12.07;;;;;;;;;;5051118;28;20451;-64
2023/04/19 00:11:25;;;;;;;12.55;11.95;;;;;;;;;;5048822;28;20059;-64
2023/04/19 00:13:51;;;;;;;12.95;12.25;;;;;;;;;;5052307;28;20025;-64
2023/04/19 00:16:16;;;;;;;12.55;11.95;;;;;;;;;;5051629;28;20016;-65
2023/04/19 00:18:42;;;;;;;12.27;11.68;;;;;;;;;;5044572;28;20048;-65
2023/04/19 00:21:07;;;;;;;12.40;11.80;;;;;;;;;;5051928;28;20495;-65
2023/04/19 00:23:32;;;;;;;11.60;11.10;;;;;;;;;;5052262;28;20023;-65
2023/04/19 00:25:58;;;;;;;12.60;12.00;;;;;;;;;;5049054;28;20015;-65
2023/04/19 00:28:24;;;;;;;12.20;11.60;;;;;;;;;;5052046;28;20541;-65
2023/04/19 00:30:49;;;;;;;12.55;11.95;;;;;;;;;;5051818;28;20477;-65
2023/04/19 00:33:14;;;;;;;12.20;11.60;;;;;;;;;;5053280;28;20163;-65
2023/04/19 00:35:42;;;;;;;12.45;11.85;;;;;;;;;;5053258;28;20021;-66
2023/04/19 00:38:08;;;;;;;12.45;11.85;;;;;;;;;;5051898;28;20025;-65
2023/04/19 00:40:33;;;;;;;13.15;12.45;;;;;;;;;;5048996;28;20523;-65
2023/04/19 00:42:58;;;;;;;12.80;12.10;;;;;;;;;;5048477;28;20021;-66
2023/04/19 00:45:24;;;;;;;12.30;11.70;;;;;;;;;;5051692;28;20094;-66
2023/04/19 00:47:49;;;;;;;12.38;11.77;;;;;;;;;;5051882;28;20387;-65
2023/04/19 00:50:15;;;;;;;12.60;12.00;;;;;;;;;;5052052;28;20031;-65
2023/04/19 00:52:40;;;;;;;11.40;10.90;;;;;;;;;;5051649;28;20024;-65
2023/04/19 00:55:06;;;;;;;11.85;11.25;;;;;;;;;;5051443;28;20043;-65
2023/04/19 00:57:31;;;;;;;12.10;11.50;;;;;;;;;;5042840;28;20049;-65
2023/04/19 00:59:57;;;;;;;12.25;11.65;;;;;;;;;;5048215;28;20076;-65
2023/04/19 01:02:23;;;;;;;12.40;11.80;;;;;;;;;;5051790;28;20096;-65
2023/04/19 01:04:48;;;;;;;12.23;11.63;;;;;;;;;;5046395;28;20029;-64
2023/04/19 01:07:13;;;;;;;12.30;11.70;;;;;;;;;;5054104;28;20082;-65
2023/04/19 01:09:42;;;;;;;13.27;12.57;;;;;;;;;;5051355;28;20027;-65
2023/04/19 01:12:08;;;;;;;13.18;12.48;;;;;;;;;;5051372;28;20074;-66
2023/04/19 01:14:33;;;;;;;12.15;11.55;;;;;;;;;;5039011;28;20104;-65
2023/04/19 01:16:58;;;;;;;11.90;11.30;;;;;;;;;;5050714;28;20094;-65
2023/04/19 01:19:24;;;;;;;12.30;11.70;;;;;;;;;;5051468;28;20488;-65
2023/04/19 01:21:51;;;;;;;11.75;11.25;;;;;;;;;;5051507;28;20365;-65
2023/04/19 01:24:16;;;;;;;14.77;13.85;;;;;;;;;;5053191;28;20048;-65
2023/04/19 01:26:42;;;;;;;12.90;12.20;;;;;;;;;;5052044;28;20090;-65
2023/04/19 01:29:07;;;;;;;12.20;11.60;;;;;;;;;;5050882;28;20028;-65
2023/04/19 01:31:33;;;;;;;12.00;11.40;;;;;;;;;;5038779;28;20076;-65
2023/04/19 01:33:58;;;;;;;12.27;11.68;;;;;;;;;;5049715;28;20021;-65
2023/04/19 01:36:23;;;;;;;12.77;12.07;;;;;;;;;;5051288;28;20032;-65
2023/04/19 01:38:49;;;;;;;12.32;11.73;;;;;;;;;;5051241;28;20025;-65
2023/04/19 01:41:14;;;;;;;12.60;12.00;;;;;;;;;;5051338;28;20103;-64
2023/04/19 01:43:40;;;;;;;12.02;11.43;;;;;;;;;;5051427;28;20411;-64
2023/04/19 01:46:05;;;;;;;12.45;11.85;;;;;;;;;;5049986;28;20383;-65
2023/04/19 01:48:30;;;;;;;12.10;11.50;;;;;;;;;;5041439;28;20484;-65
2023/04/19 01:50:55;;;;;;;11.30;10.80;;;;;;;;;;5050249;28;20091;-65
2023/04/19 01:53:21;;;;;;;11.90;11.30;;;;;;;;;;5051046;28;20021;-65
2023/04/19 01:55:46;;;;;;;12.15;11.55;;;;;;;;;;5050918;28;20167;-65
2023/04/19 01:58:11;;;;;;;12.73;12.02;;;;;;;;;;5044598;28;20524;-65
2023/04/19 02:00:37;;;;;;;12.20;11.60;;;;;;;;;;5044090;28;20527;-64
2023/04/19 02:03:02;;;;;;;12.52;11.93;;;;;;;;;;5049925;28;20025;-64
2023/04/19 02:05:27;;;;;;;11.80;11.23;;;;;;;;;;5053446;28;20028;-66
2023/04/19 02:07:53;;;;;;;12.32;11.73;;;;;;;;;;5051116;28;20104;-65
2023/04/19 02:10:18;;;;;;;12.10;11.50;;;;;;;;;;5055758;28;20477;-65
2023/04/19 02:12:43;;;;;;;11.70;11.20;;;;;;;;;;5055687;28;20025;-64
2023/04/19 02:15:09;;;;;;;12.50;11.90;;;;;;;;;;5064652;28;20410;-65
2023/04/19 02:17:35;;;;;;;11.95;11.35;;;;;;;;;;5047601;28;20025;-65
2023/04/19 02:20:00;;;;;;;12.02;11.43;;;;;;;;;;5054846;28;20029;-65
2023/04/19 02:22:25;;;;;;;12.00;11.43;;;;;;;;;;5049924;28;20632;-66
2023/04/19 02:24:50;;;;;;;11.85;11.25;;;;;;;;;;5053429;28;20104;-65
2023/04/19 02:27:16;;;;;;;12.35;11.75;;;;;;;;;;5054362;28;20017;-66
2023/04/19 02:29:41;;;;;;;12.50;11.90;;;;;;;;;;5054215;28;20056;-65
2023/04/19 02:32:06;;;;;;;12.35;11.75;;;;;;;;;;5054948;28;20036;-65
2023/04/19 02:34:32;;;;;;;12.93;12.23;;;;;;;;;;5053572;28;20021;-65
2023/04/19 02:36:57;;;;;;;12.05;11.45;;;;;;;;;;5051000;28;20434;-66
2023/04/19 02:39:23;;;;;;;11.77;11.27;;;;;;;;;;5052663;28;20035;-64
2023/04/19 02:41:48;;;;;;;11.98;11.38;;;;;;;;;;5053442;28;20025;-66
2023/04/19 02:44:13;;;;;;;12.00;11.40;;;;;;;;;;5054204;28;20465;-63
2023/04/19 02:46:40;;;;;;;12.07;11.48;;;;;;;;;;5054675;28;20031;-65
2023/04/19 02:49:05;;;;;;;12.32;11.73;;;;;;;;;;5054591;28;20506;-64
2023/04/19 02:51:30;;;;;;;12.40;11.80;;;;;;;;;;5057707;28;20031;-65
2023/04/19 02:53:56;;;;;;;12.48;11.88;;;;;;;;;;5051063;28;20560;-65
2023/04/19 02:56:21;;;;;;;12.77;12.07;;;;;;;;;;5052983;28;20399;-65
2023/04/19 02:58:46;;;;;;;12.63;12.00;;;;;;;;;;5047318;28;20032;-65
2023/04/19 03:01:12;;;;;;;13.00;12.30;;;;;;;;;;5053307;28;20132;-66
2023/04/19 03:03:37;;;;;;;12.65;12.00;;;;;;;;;;5053818;28;20096;-65
2023/04/19 03:06:02;;;;;;;13.82;13.02;;;;;;;;;;5042821;28;20045;-65
2023/04/19 03:08:28;;;;;;;12.02;11.43;;;;;;;;;;5047019;28;20087;-65
2023/04/19 03:10:53;;;;;;;12.25;11.65;;;;;;;;;;5053517;28;20031;-65
2023/04/19 03:13:19;;;;;;;11.90;11.30;;;;;;;;;;5057465;28;20052;-65
2023/04/19 03:15:45;;;;;;;12.40;11.80;;;;;;;;;;5052644;28;20025;-65
2023/04/19 03:18:11;;;;;;;12.38;11.77;;;;;;;;;;5053321;28;20021;-65
2023/04/19 03:20:36;;;;;;;12.63;12.00;;;;;;;;;;5052839;28;20024;-65
2023/04/19 03:23:01;;;;;;;12.70;12.05;;;;;;;;;;5053581;28;20017;-65
2023/04/19 03:25:27;;;;;;;12.30;11.70;;;;;;;;;;5051855;28;20040;-66
2023/04/19 03:27:53;;;;;;;12.30;11.70;;;;;;;;;;5052905;28;20025;-66
2023/04/19 03:30:18;;;;;;;12.50;11.90;;;;;;;;;;5047737;28;20041;-67
2023/04/19 03:32:45;;;;;;;11.95;11.35;;;;;;;;;;5052216;28;20056;-65
2023/04/19 03:35:10;;;;;;;12.20;11.60;;;;;;;;;;5044077;28;20021;-65
2023/04/19 03:37:36;;;;;;;12.05;11.48;;;;;;;;;;5052648;28;20025;-65
2023/04/19 03:40:01;;;;;;;12.18;11.57;;;;;;;;;;5051838;28;20024;-64
2023/04/19 03:42:27;;;;;;;12.23;11.63;;;;;;;;;;5050116;28;20029;-67
2023/04/19 03:44:52;;;;;;;12.40;11.80;;;;;;;;;;5052609;28;20021;-65
2023/04/19 03:47:17;;;;;;;12.38;11.77;;;;;;;;;;5044486;28;20028;-65
2023/04/19 03:49:42;;;;;;;12.70;12.02;;;;;;;;;;5051522;28;20210;-66
2023/04/19 03:52:08;;;;;;;12.85;12.15;;;;;;;;;;5041460;28;20060;-64
2023/04/19 03:54:33;;;;;;;13.07;12.38;;;;;;;;;;5042557;28;20064;-64
2023/04/19 03:56:59;;;;;;;12.98;12.27;;;;;;;;;;5043391;28;20029;-64
2023/04/19 03:59:24;;;;;;;13.10;12.40;;;;;;;;;;5067194;28;20053;-65
2023/04/19 04:01:50;;;;;;;13.90;13.10;;;;;;;;;;5038543;28;20435;-67
2023/04/19 04:04:15;;;;;;;13.40;12.65;;;;;;;;;;5040257;28;20039;-67
2023/04/19 04:06:40;;;;;;;12.45;11.85;;;;;;;;;;5048170;28;20461;-67
2023/04/19 04:09:06;;;;;;;13.07;12.38;;;;;;;;;;5048022;28;20055;-67
2023/04/19 04:11:31;;;;;;;13.20;12.50;;;;;;;;;;5040056;28;20393;-66
2023/04/19 04:13:57;;;;;;;13.20;12.50;;;;;;;;;;5049838;28;20017;-66
2023/04/19 04:16:22;;;;;;;13.40;12.70;;;;;;;;;;5062710;28;20499;-66
2023/04/19 04:18:47;;;;;;;12.90;12.20;;;;;;;;;;5051462;28;20037;-67
2023/04/19 04:21:13;;;;;;;13.30;12.60;;;;;;;;;;5051903;28;20040;-67
2023/04/19 04:23:38;;;;;;;12.25;11.65;;;;;;;;;;5051158;28;20017;-67
2023/04/19 04:26:05;;;;;;;12.98;12.27;;;;;;;;;;5046607;28;20041;-68
2023/04/19 04:28:30;;;;;;;12.27;11.68;;;;;;;;;;5049563;28;20499;-68
2023/04/19 04:30:56;;;;;;;12.15;11.55;;;;;;;;;;5044486;28;20025;-68
2023/04/19 04:33:25;;;;;;;12.70;12.07;;;;;;;;;;5053248;28;20025;-70
2023/04/19 04:35:52;;;;;;;14.63;13.73;;;;;;;;;;5051488;28;20036;-68
2023/04/19 04:38:17;;;;;;;12.73;12.10;;;;;;;;;;5051560;28;20024;-68
2023/04/19 04:40:43;;;;;;;12.95;12.25;;;;;;;;;;5050916;28;20412;-69
2023/04/19 04:43:09;;;;;;;13.00;12.30;;;;;;;;;;5049845;28;20017;-69
2023/04/19 04:45:36;;;;;;;14.05;13.25;;;;;;;;;;5044115;28;20043;-69
2023/04/19 04:48:02;;;;;;;12.63;12.00;;;;;;;;;;5046812;28;20048;-69
2023/04/19 04:50:27;;;;;;;12.57;11.95;;;;;;;;;;5047149;28;20382;-67
2023/04/19 04:52:52;;;;;;;13.90;13.07;;;;;;;;;;5046908;28;20041;-68
2023/04/19 04:55:18;;;;;;;12.73;12.05;;;;;;;;;;5040931;28;20083;-68
2023/04/19 04:57:43;;;;;;;13.75;12.95;;;;;;;;;;5050718;28;20108;-67
2023/04/19 05:00:10;;;;;;;13.00;12.30;;;;;;;;;;5050944;28;20041;-68
2023/04/19 05:02:35;;;;;;;12.40;11.80;;;;;;;;;;5051781;28;20110;-68
2023/04/19 05:05:00;;;;;;;12.90;12.23;;;;;;;;;;5051360;28;20480;-67
2023/04/19 05:07:25;;;;;;;13.00;12.30;;;;;;;;;;5051757;28;20439;-67
2023/04/19 05:09:51;;;;;;;14.00;13.20;;;;;;;;;;5043299;28;20372;-67
2023/04/19 05:12:16;;;;;;;12.35;11.75;;;;;;;;;;5045759;28;20061;-67
2023/04/19 05:14:41;;;;;;;14.98;14.05;;;;;;;;;;5048821;28;20098;-66
2023/04/19 05:17:07;;;;;;;14.38;13.48;;;;;;;;;;5047203;28;20039;-68
2023/04/19 05:19:32;;;;;;;12.80;12.20;;;;;;;;;;5048687;28;20053;-68
2023/04/19 05:21:57;;;;;;;12.90;12.20;;;;;;;;;;5050150;28;20092;-67
2023/04/19 05:24:23;;;;;;;12.13;11.52;;;;;;;;;;5051798;28;20040;-67
2023/04/19 05:26:48;;;;;;;12.95;12.25;;;;;;;;;;5050849;28;20024;-66
2023/04/19 05:29:13;;;;;;;12.27;11.68;;;;;;;;;;5051876;28;20376;-67
2023/04/19 05:31:39;;;;;;;12.50;11.90;;;;;;;;;;5050347;28;20519;-68
2023/04/19 05:34:04;;;;;;;12.65;11.98;;;;;;;;;;5044481;28;20017;-68
2023/04/19 05:36:31;;;;;;;12.85;12.15;;;;;;;;;;5045297;28;20025;-68
2023/04/19 05:38:56;;;;;;;13.07;12.38;;;;;;;;;;5054457;28;20028;-68
2023/04/19 05:41:22;;;;;;;12.43;11.77;;;;;;;;;;5049962;28;20388;-68
2023/04/19 05:43:47;;;;;;;14.40;13.55;;;;;;;;;;5050156;28;20040;-67
2023/04/19 05:46:13;;;;;;;13.70;12.90;;;;;;;;;;5043634;28;20516;-67
2023/04/19 05:48:38;;;;;;;13.43;12.73;;;;;;;;;;5046092;28;20037;-64
2023/04/19 05:51:03;;;;;;;12.32;11.73;;;;;;;;;;5054657;28;20033;-65
2023/04/19 05:53:29;;;;;;;13.02;12.32;;;;;;;;;;5057597;28;20025;-64
2023/04/19 05:55:54;;;;;;;12.77;12.10;;;;;;;;;;5054225;28;20020;-65
2023/04/19 05:58:19;;;;;;;12.32;11.73;;;;;;;;;;5056035;28;20017;-65
2023/04/19 06:00:45;;;;;;;12.82;12.13;;;;;;;;;;5053162;28;20135;-64
2023/04/19 06:03:10;;;;;;;12.93;12.23;;;;;;;;;;5046551;28;20046;-63
2023/04/19 06:05:36;;;;;;;12.75;12.05;;;;;;;;;;5059425;28;20029;-63
2023/04/19 06:08:01;;;;;;;13.07;12.38;;;;;;;;;;5051366;28;20017;-63
2023/04/19 06:10:26;;;;;;;13.00;12.30;;;;;;;;;;5045431;28;20039;-64
2023/04/19 06:12:52;;;;;;;12.93;12.23;;;;;;;;;;5053090;28;20100;-63
2023/04/19 06:15:17;;;;;;;12.90;12.20;;;;;;;;;;5060092;28;20096;-63
2023/04/19 06:17:42;;;;;;;12.90;12.23;;;;;;;;;;5052760;28;20025;-63
2023/04/19 06:20:08;;;;;;;13.60;12.82;;;;;;;;;;5053192;28;20017;-64
2023/04/19 06:22:35;;;;;;;13.90;13.10;;;;;;;;;;5045674;28;20017;-64
2023/04/19 06:25:00;;;;;;;12.90;12.20;;;;;;;;;;5053716;28;20020;-63
2023/04/19 06:27:26;;;;;;;13.27;12.57;;;;;;;;;;5054475;28;20399;-64
2023/04/19 06:29:51;;;;;;;12.85;12.15;;;;;;;;;;5054058;28;20020;-63
2023/04/19 06:32:18;;;;;;;12.52;11.88;;;;;;;;;;5054163;28;20375;-64
2023/04/19 06:34:43;;;;;;;13.05;12.35;;;;;;;;;;5053916;28;20063;-64
2023/04/19 06:37:08;;;;;;;13.88;13.07;;;;;;;;;;5051744;28;20075;-63
2023/04/19 06:39:34;;;;;;;12.80;12.10;;;;;;;;;;5052876;28;20035;-64
2023/04/19 06:42:01;;;;;;;13.10;12.40;;;;;;;;;;5052790;28;20020;-64
2023/04/19 06:44:26;;;;;;;13.80;13.00;;;;;;;;;;5053789;28;20017;-64
2023/04/19 06:46:52;;;;;;;12.98;12.27;;;;;;;;;;5053878;28;20475;-65
2023/04/19 06:49:17;;;;;;;13.25;12.55;;;;;;;;;;5052759;28;20029;-65
2023/04/19 06:51:42;;;;;;;12.43;11.82;;;;;;;;;;5045502;28;20028;-65
2023/04/19 06:54:07;;;;;;;13.02;12.32;;;;;;;;;;5053457;28;20184;-63
2023/04/19 06:56:41;;;;;;;13.18;12.48;;;;;;;;;;5044414;28;20099;-64
2023/04/19 06:59:06;;;;;;;13.15;12.45;;;;;;;;;;5053052;28;20028;-63
2023/04/19 07:01:32;;;;;;;12.80;12.10;;;;;;;;;;5053144;28;20033;-63
2023/04/19 07:03:57;;;;;;;12.55;11.95;;;;;;;;;;5053297;28;20361;-64
2023/04/19 07:06:22;;;;;;;12.68;12.02;;;;;;;;;;5049494;28;20047;-65
2023/04/19 07:08:47;;;;;;;12.63;12.02;;;;;;;;;;5053394;28;20055;-62
2023/04/19 07:11:13;;;;;;;12.98;12.27;;;;;;;;;;5053305;28;20029;-65
2023/04/19 07:13:38;;;;;;;13.30;12.60;;;;;;;;;;5045884;28;20598;-63
2023/04/19 07:16:04;;;;;;;12.98;12.27;;;;;;;;;;5053085;28;20029;-63
2023/04/19 07:18:29;;;;;;;12.65;12.05;;;;;;;;;;5050185;28;20033;-64
2023/04/19 07:20:54;;;;;;;12.40;11.80;;;;;;;;;;5046048;28;20021;-64
2023/04/19 07:23:20;;;;;;;12.45;11.85;;;;;;;;;;5052932;28;20039;-64
2023/04/19 07:25:45;;;;;;;12.35;11.75;;;;;;;;;;5053149;28;20025;-64
2023/04/19 07:28:10;;;;;;;13.43;12.73;;;;;;;;;;5048665;28;20041;-64
2023/04/19 07:30:36;;;;;;;13.10;12.40;;;;;;;;;;5046414;28;20021;-63
2023/04/19 07:33:03;;;;;;;13.65;12.90;;;;;;;;;;5049913;28;20075;-63
2023/04/19 07:35:28;;;;;;;12.50;11.90;;;;;;;;;;5053079;28;20112;-63
2023/04/19 07:37:53;;;;;;;12.30;11.70;;;;;;;;;;5050495;28;20104;-64
2023/04/19 07:40:19;;;;;;;13.00;12.30;;;;;;;;;;5052648;28;20488;-64
2023/04/19 07:42:44;;;;;;;12.60;11.90;;;;;;;;;;5052373;28;20024;-64
2023/04/19 07:45:09;;;;;;;12.60;12.00;;;;;;;;;;5052747;28;20032;-64
2023/04/19 07:47:35;;;;;;;11.82;11.27;;;;;;;;;;5047674;28;20028;-64
2023/04/19 07:50:00;;;;;;;12.63;12.00;;;;;;;;;;5052596;28;20040;-64
2023/04/19 07:52:25;;;;;;;13.10;12.40;;;;;;;;;;5052618;28;20021;-63
2023/04/19 07:54:50;;;;;;;12.98;12.32;;;;;;;;;;5040489;28;20100;-63
2023/04/19 07:57:16;;;;;;;13.00;12.30;;;;;;;;;;5050693;28;20029;-64
2023/04/19 07:59:41;;;;;;;13.10;12.40;;;;;;;;;;5051829;28;20025;-64
2023/04/19 08:02:06;;;;;;;13.48;12.77;;;;;;;;;;5041189;28;20036;-64
2023/04/19 08:04:32;;;;;;;13.38;12.68;;;;;;;;;;5051387;28;20100;-64
2023/04/19 08:06:58;;;;;;;13.50;12.80;;;;;;;;;;5049268;28;20016;-64
2023/04/19 08:09:23;;;;;;;12.68;12.07;;;;;;;;;;5052620;28;20035;-64
2023/04/19 08:11:48;;;;;;;12.52;11.93;;;;;;;;;;5052009;28;20021;-64
2023/04/19 08:14:14;;;;;;;13.27;12.57;;;;;;;;;;5050253;28;20547;-63
2023/04/19 08:16:39;;;;;;;12.73;12.10;;;;;;;;;;5047162;28;20028;-64
2023/04/19 08:19:05;;;;;;;12.93;12.25;;;;;;;;;;5052195;28;20048;-64
2023/04/19 08:21:30;;;;;;;12.57;11.98;;;;;;;;;;5051109;28;20468;-64
2023/04/19 08:23:55;;;;;;;13.68;12.95;;;;;;;;;;5052091;28;20098;-64
2023/04/19 08:26:21;;;;;;;12.60;12.00;;;;;;;;;;5051397;28;20025;-64
2023/04/19 08:28:48;;;;;;;13.23;12.52;;;;;;;;;;5051820;28;20121;-64
2023/04/19 08:31:14;;;;;;;12.57;11.98;;;;;;;;;;5051939;28;20392;-64
2023/04/19 08:33:39;;;;;;;12.63;12.02;;;;;;;;;;5050860;28;20036;-64
2023/04/19 08:36:04;;;;;;;13.00;12.30;;;;;;;;;;5042971;28;20028;-63
2023/04/19 08:38:30;;;;;;;12.73;12.13;;;;;;;;;;5056963;28;20025;-63
2023/04/19 08:40:55;;;;;;;13.00;12.30;;;;;;;;;;5053871;28;20021;-63
2023/04/19 08:43:20;;;;;;;12.43;11.82;;;;;;;;;;5055118;28;20099;-64
2023/04/19 08:45:49;;;;;;;12.90;12.25;;;;;;;;;;5051360;28;20476;-63
2023/04/19 08:48:15;;;;;;;13.48;12.77;;;;;;;;;;5052800;28;20040;-63
2023/04/19 08:50:41;;;;;;;13.40;12.70;;;;;;;;;;5052690;28;20027;-63
2023/04/19 08:53:09;;;;;;;12.88;12.23;;;;;;;;;;5051340;28;20029;-65
2023/04/19 08:55:35;;;;;;;13.38;12.68;;;;;;;;;;5046152;28;20105;-64
2023/04/19 08:58:02;;;;;;;13.95;13.15;;;;;;;;;;5051046;28;20455;-64
2023/04/19 09:00:27;;;;;;;12.27;11.68;;;;;;;;;;5051367;28;20500;-64
2023/04/19 09:02:57;;;;;;;12.70;12.10;;;;;;;;;;5051521;28;20051;-64
2023/04/19 09:05:22;;;;;;;13.07;12.38;;;;;;;;;;5051224;28;20048;-64
2023/04/19 09:07:47;;;;;;;12.50;11.90;;;;;;;;;;5038245;28;20045;-64
2023/04/19 09:10:16;;;;;;;12.82;12.20;;;;;;;;;;5050607;28;20425;-63
2023/04/19 09:12:42;;;;;;;13.32;12.63;;;;;;;;;;5053239;28;20028;-64
2023/04/19 09:15:08;;;;;;;12.63;12.02;;;;;;;;;;5057494;28;20017;-64
2023/04/19 09:17:34;;;;;;;12.65;12.05;;;;;;;;;;5058166;28;20052;-64
2023/04/19 09:19:59;;;;;;;12.60;12.00;;;;;;;;;;5057944;28;20036;-65
2023/04/19 09:22:25;;;;;;;12.82;12.20;;;;;;;;;;5057940;28;20416;-64
2023/04/19 09:24:51;;;;;;;13.63;12.90;;;;;;;;;;5057989;28;20017;-64
2023/04/19 09:27:24;;;;;;;12.75;12.13;;;;;;;;;;5057597;28;20017;-63
2023/04/19 09:29:52;;;;;;;12.60;12.00;;;;;;;;;;5057060;28;20021;-63
2023/04/19 09:32:17;;;;;;;13.10;12.40;;;;;;;;;;5054290;28;20636;-63
2023/04/19 09:34:55;;;;;;;12.50;11.90;;;;;;;;;;5058059;28;20036;-65
2023/04/19 09:37:21;;;;;;;13.35;12.65;;;;;;;;;;5057504;28;20016;-65
2023/04/19 09:39:47;;;;;;;12.77;12.18;;;;;;;;;;5057775;28;20020;-64
2023/04/19 09:42:12;;;;;;;12.75;12.13;;;;;;;;;;5056500;28;20029;-63
2023/04/19 09:44:37;;;;;;;13.07;12.38;;;;;;;;;;5057577;28;20476;-63
2023/04/19 09:47:19;;;;;;;13.50;12.80;;;;;;;;;;5055328;28;20025;-65
2023/04/19 09:49:45;;;;;;;12.95;12.25;;;;;;;;;;5057593;28;20017;-63
2023/04/19 09:52:12;;;;;;;12.70;12.10;;;;;;;;;;5057725;28;20414;-64
2023/04/19 09:54:37;;;;;;;12.85;12.20;;;;;;;;;;5057851;28;20036;-63
2023/04/19 09:57:03;;;;;;;13.38;12.68;;;;;;;;;;5057520;28;20025;-63
2023/04/19 09:59:28;;;;;;;12.30;11.70;;;;;;;;;;5057487;28;20032;-63
2023/04/19 10:01:55;;;;;;;12.18;11.57;;;;;;;;;;5057318;28;20049;-63
2023/04/19 10:04:23;;;;;;;12.50;11.90;;;;;;;;;;5056056;28;20108;-64
2023/04/19 10:06:52;;;;;;;13.35;12.65;;;;;;;;;;5057378;28;20480;-62
2023/04/19 10:09:21;;;;;;;12.73;12.13;;;;;;;;;;5057626;28;20588;-64
2023/04/19 10:11:47;;;;;;;12.95;12.25;;;;;;;;;;5057287;28;20538;-64
2023/04/19 10:14:14;;;;;;;13.10;12.40;;;;;;;;;;5056282;28;20113;-64
2023/04/19 10:16:39;;;;;;;12.73;12.13;;;;;;;;;;5043811;28;20021;-64
2023/04/19 10:19:07;;;;;;;13.65;12.95;;;;;;;;;;5056451;28;20468;-64
2023/04/19 10:21:32;;;;;;;12.35;11.75;;;;;;;;;;5057131;28;20052;-64
2023/04/19 10:23:58;;;;;;;12.90;12.30;;;;;;;;;;5055325;28;20094;-63
2023/04/19 10:26:23;;;;;;;12.90;12.25;;;;;;;;;;5051285;28;20345;-63
2023/04/19 10:28:49;;;;;;;12.65;12.05;;;;;;;;;;5052667;28;20102;-65
2023/04/19 10:31:14;;;;;;;13.32;12.63;;;;;;;;;;5054405;28;20056;-64
2023/04/19 10:33:40;;;;;;;12.27;11.68;;;;;;;;;;5054691;28;20016;-65
2023/04/19 10:36:09;;;;;;;13.60;12.90;;;;;;;;;;5053384;28;20510;-64
2023/04/19 10:38:36;;;;;;;12.50;11.90;;;;;;;;;;5053615;28;20151;-64
2023/04/19 10:41:02;;;;;;;13.48;12.77;;;;;;;;;;5053565;28;20012;-64
2023/04/19 10:43:33;;;;;;;12.27;11.68;;;;;;;;;;5053239;28;20017;-64
2023/04/19 10:46:00;;;;;;;12.38;11.77;;;;;;;;;;5053817;28;20028;-64
2023/04/19 10:48:26;;;;;;;13.10;12.40;;;;;;;;;;5053908;28;20029;-64
2023/04/19 10:50:57;;;;;;;12.45;11.85;;;;;;;;;;5053935;28;20016;-64
2023/04/19 10:53:41;;;;;;;13.57;12.88;;;;;;;;;;5045284;28;20030;-64
2023/04/19 10:56:06;;;;;;;12.82;12.18;;;;;;;;;;5046922;28;20502;-64
2023/04/19 10:58:52;;;;;;;13.15;12.45;;;;;;;;;;5056493;28;20115;-63
2023/04/19 11:01:33;;;;;;;12.45;11.85;;;;;;;;;;5053234;28;20048;-63
2023/04/19 11:03:58;;;;;;;12.75;12.15;;;;;;;;;;5053320;28;20096;-64
2023/04/19 11:06:26;;;;;;;12.63;12.02;;;;;;;;;;5039390;28;20122;-64
2023/04/19 11:08:52;;;;;;;12.63;12.02;;;;;;;;;;5053447;28;20048;-64
2023/04/19 11:11:24;;;;;;;12.35;11.75;;;;;;;;;;5052560;28;20380;-64
2023/04/19 11:13:49;;;;;;;13.23;12.52;;;;;;;;;;5056132;28;20020;-63
2023/04/19 11:16:15;;;;;;;12.85;12.20;;;;;;;;;;5056655;28;20104;-64
2023/04/19 11:18:40;;;;;;;13.00;12.30;;;;;;;;;;5053444;28;20060;-63
2023/04/19 11:21:05;;;;;;;12.90;12.20;;;;;;;;;;5052789;28;20354;-63
2023/04/19 11:23:30;;;;;;;12.80;12.20;;;;;;;;;;5051450;28;20067;-64
2023/04/19 11:25:56;;;;;;;13.13;12.43;;;;;;;;;;5052914;28;20531;-63
2023/04/19 11:28:21;;;;;;;12.40;11.80;;;;;;;;;;5041463;28;20029;-64
2023/04/19 11:30:46;;;;;;;12.23;11.63;;;;;;;;;;5050204;28;20427;-64
2023/04/19 11:33:12;;;;;;;13.70;12.95;;;;;;;;;;5052813;28;20116;-63
2023/04/19 11:35:37;;;;;;;13.35;12.65;;;;;;;;;;5052842;28;20021;-63
2023/04/19 11:38:04;;;;;;;13.18;12.48;;;;;;;;;;5052778;28;20419;-65
2023/04/19 11:40:29;;;;;;;12.95;12.30;;;;;;;;;;5052907;28;20017;-64
2023/04/19 11:42:56;;;;;;;12.32;11.73;;;;;;;;;;5052859;28;20066;-63
2023/04/19 11:45:25;;;;;;;12.77;12.18;;;;;;;;;;5052007;28;20046;-63
2023/04/19 11:47:50;;;;;;;13.07;12.38;;;;;;;;;;5047821;28;20024;-64
2023/04/19 11:50:31;;;;;;;12.25;11.65;;;;;;;;;;5052562;28;20013;-64
2023/04/19 11:52:56;;;;;;;13.20;12.50;;;;;;;;;;5052494;28;20017;-64
2023/04/19 11:55:22;;;;;;;12.70;12.10;;;;;;;;;;5052324;28;20032;-63
2023/04/19 11:57:47;;;;;;;13.23;12.52;;;;;;;;;;5052387;28;20021;-63
2023/04/19 12:00:13;;;;;;;13.18;12.48;;;;;;;;;;5051878;28;20045;-64
2023/04/19 12:02:39;;;;;;;12.80;12.20;;;;;;;;;;5040084;28;20100;-63
2023/04/19 12:05:12;;;;;;;12.82;12.13;;;;;;;;;;5052176;28;20040;-64
2023/04/19 12:07:56;;;;;;;12.60;11.98;;;;;;;;;;5052041;28;20092;-63
2023/04/19 12:10:21;;;;;;;12.77;12.10;;;;;;;;;;5052278;28;20024;-65
2023/04/19 12:12:46;;;;;;;13.10;12.40;;;;;;;;;;5052887;28;20246;-63
2023/04/19 12:15:12;;;;;;;13.50;12.80;;;;;;;;;;5049942;28;20169;-64
2023/04/19 12:17:54;;;;;;;12.88;12.18;;;;;;;;;;5048629;28;20025;-64
2023/04/19 12:20:33;;;;;;;12.02;11.43;;;;;;;;;;5055199;28;20029;-64
2023/04/19 12:22:58;;;;;;;12.63;12.02;;;;;;;;;;5053030;28;20009;-63
2023/04/19 12:25:31;;;;;;;13.65;12.93;;;;;;;;;;5051739;28;20115;-65
2023/04/19 12:27:56;;;;;;;12.90;12.20;;;;;;;;;;5052536;28;20028;-63
2023/04/19 12:30:23;;;;;;;12.48;11.88;;;;;;;;;;5051975;28;20044;-64
2023/04/19 12:32:50;;;;;;;12.68;12.07;;;;;;;;;;5052235;28;20032;-63
2023/04/19 12:35:15;;;;;;;13.18;12.48;;;;;;;;;;5048203;28;20508;-63
2023/04/19 12:37:40;;;;;;;12.95;12.30;;;;;;;;;;5041635;28;20021;-64
2023/04/19 12:40:06;;;;;;;13.68;12.98;;;;;;;;;;5051139;28;20017;-64
2023/04/19 12:42:31;;;;;;;13.45;12.75;;;;;;;;;;5050562;28;20536;-64
2023/04/19 12:44:57;;;;;;;14.35;13.55;;;;;;;;;;5046819;28;20021;-63
2023/04/19 12:47:22;;;;;;;12.50;11.90;;;;;;;;;;5050858;28;20100;-63
2023/04/19 12:49:47;;;;;;;13.15;12.45;;;;;;;;;;5051490;28;20059;-63
2023/04/19 12:52:13;;;;;;;12.60;12.00;;;;;;;;;;5050553;28;20024;-64
2023/04/19 12:54:38;;;;;;;12.45;11.85;;;;;;;;;;5051423;28;20025;-65
2023/04/19 12:57:03;;;;;;;12.73;12.13;;;;;;;;;;5051526;28;20017;-64
2023/04/19 12:59:29;;;;;;;12.80;12.15;;;;;;;;;;5051595;28;20025;-64
2023/04/19 13:01:54;;;;;;;12.45;11.85;;;;;;;;;;5051187;28;20508;-63
2023/04/19 13:04:20;;;;;;;13.48;12.77;;;;;;;;;;5051133;28;20418;-64
2023/04/19 13:06:45;;;;;;;12.80;12.20;;;;;;;;;;5051138;28;20021;-64
2023/04/19 13:09:10;;;;;;;13.50;12.80;;;;;;;;;;5050366;28;20112;-64
2023/04/19 13:11:36;;;;;;;12.95;12.27;;;;;;;;;;5051154;28;20395;-63
2023/04/19 13:14:01;;;;;;;14.38;13.57;;;;;;;;;;5054442;28;20066;-63
2023/04/19 13:16:26;;;;;;;14.70;13.90;;;;;;;;;;5050261;28;20025;-63
2023/04/19 13:18:53;;;;;;;13.57;12.88;;;;;;;;;;5050837;28;20025;-63
2023/04/19 13:21:18;;;;;;;13.35;12.65;;;;;;;;;;5035194;28;20025;-64
2023/04/19 13:23:44;;;;;;;12.57;11.98;;;;;;;;;;5046395;28;20092;-64
2023/04/19 13:26:09;;;;;;;13.35;12.65;;;;;;;;;;5050051;28;20021;-64
2023/04/19 13:28:35;;;;;;;12.45;11.85;;;;;;;;;;5050824;28;20103;-63
2023/04/19 13:31:01;;;;;;;12.43;11.82;;;;;;;;;;5050826;28;20028;-64
2023/04/19 13:33:26;;;;;;;12.30;11.70;;;;;;;;;;5048121;28;20033;-64
2023/04/19 13:35:52;;;;;;;12.90;12.30;;;;;;;;;;5041815;28;20021;-64
2023/04/19 13:38:17;;;;;;;13.48;12.77;;;;;;;;;;5050794;28;20025;-64
2023/04/19 13:40:43;;;;;;;13.07;12.45;;;;;;;;;;5050634;28;20021;-63
2023/04/19 13:43:09;;;;;;;13.13;12.43;;;;;;;;;;5050418;28;20021;-64
2023/04/19 13:45:34;;;;;;;14.13;13.35;;;;;;;;;;5050293;28;20380;-64
2023/04/19 13:47:59;;;;;;;13.70;13.00;;;;;;;;;;5040057;28;20025;-64
2023/04/19 13:50:25;;;;;;;13.93;13.18;;;;;;;;;;5045526;28;20025;-63
2023/04/19 13:52:50;;;;;;;13.10;12.40;;;;;;;;;;5049541;28;20021;-64
2023/04/19 13:55:15;;;;;;;13.52;12.82;;;;;;;;;;5050701;28;20021;-65
2023/04/19 13:57:41;;;;;;;12.38;11.77;;;;;;;;;;5050745;28;20017;-64
2023/04/19 14:00:07;;;;;;;12.85;12.25;;;;;;;;;;5051814;28;20406;-64
2023/04/19 14:02:32;;;;;;;12.75;12.15;;;;;;;;;;5051639;28;20017;-63
2023/04/19 14:04:58;;;;;;;13.68;12.98;;;;;;;;;;5049561;28;20116;-64
2023/04/19 14:07:23;;;;;;;12.75;12.15;;;;;;;;;;5054328;28;20021;-63
2023/04/19 14:09:49;;;;;;;13.20;12.50;;;;;;;;;;5053932;28;20025;-64